sensor_id;sensor_type;location;lat;lon;timestamp;P1;durP1;ratioP1;P2;durP2;ratioP2
63005;SDS011;53704;52.532;6.426;2022-09-28T00:01:36;22.42;;;15.52;;
63005;SDS011;53704;52.532;6.426;2022-09-28T00:04:01;21.10;;;15.32;;
63005;SDS011;53704;52.532;6.426;2022-09-28T00:06:27;16.38;;;13.82;;
63005;SDS011;53704;52.532;6.426;2022-09-28T00:08:54;21.13;;;15.32;;
63005;SDS011;53704;52.532;6.426;2022-09-28T00:11:21;15.05;;;13.75;;
63005;SDS011;53704;52.532;6.426;2022-09-28T00:13:51;23.05;;;15.10;;
63005;SDS011;53704;52.532;6.426;2022-09-28T00:16:21;17.15;;;14.02;;
63005;SDS011;53704;52.532;6.426;2022-09-28T00:18:49;19.88;;;14.90;;
63005;SDS011;53704;52.532;6.426;2022-09-28T00:21:19;23.30;;;14.27;;
63005;SDS011;53704;52.532;6.426;2022-09-28T00:23:46;18.63;;;15.05;;
63005;SDS011;53704;52.532;6.426;2022-09-28T00:26:31;18.23;;;14.27;;
63005;SDS011;53704;52.532;6.426;2022-09-28T00:28:58;16.83;;;13.98;;
63005;SDS011;53704;52.532;6.426;2022-09-28T00:31:29;24.60;;;16.10;;
63005;SDS011;53704;52.532;6.426;2022-09-28T00:33:57;21.02;;;14.52;;
63005;SDS011;53704;52.532;6.426;2022-09-28T00:36:24;18.73;;;15.13;;
63005;SDS011;53704;52.532;6.426;2022-09-28T00:38:52;17.35;;;15.13;;
63005;SDS011;53704;52.532;6.426;2022-09-28T00:41:25;21.42;;;15.52;;
63005;SDS011;53704;52.532;6.426;2022-09-28T00:43:52;21.90;;;15.68;;
63005;SDS011;53704;52.532;6.426;2022-09-28T00:46:36;18.73;;;14.98;;
63005;SDS011;53704;52.532;6.426;2022-09-28T00:49:02;18.00;;;15.13;;
63005;SDS011;53704;52.532;6.426;2022-09-28T00:51:35;21.88;;;15.48;;
63005;SDS011;53704;52.532;6.426;2022-09-28T00:54:05;29.73;;;16.88;;
63005;SDS011;53704;52.532;6.426;2022-09-28T00:56:32;18.98;;;14.80;;
63005;SDS011;53704;52.532;6.426;2022-09-28T00:59:02;21.25;;;16.00;;
63005;SDS011;53704;52.532;6.426;2022-09-28T01:01:28;17.90;;;15.25;;
63005;SDS011;53704;52.532;6.426;2022-09-28T01:03:54;21.75;;;16.55;;
63005;SDS011;53704;52.532;6.426;2022-09-28T01:06:24;25.75;;;16.83;;
63005;SDS011;53704;52.532;6.426;2022-09-28T01:08:56;24.48;;;15.70;;
63005;SDS011;53704;52.532;6.426;2022-09-28T01:11:24;22.27;;;16.83;;
63005;SDS011;53704;52.532;6.426;2022-09-28T01:13:50;25.75;;;16.98;;
63005;SDS011;53704;52.532;6.426;2022-09-28T01:21:42;24.27;;;18.42;;
63005;SDS011;53704;52.532;6.426;2022-09-28T01:24:25;21.90;;;17.80;;
63005;SDS011;53704;52.532;6.426;2022-09-28T01:27:17;23.90;;;18.33;;
63005;SDS011;53704;52.532;6.426;2022-09-28T01:32:30;30.60;;;18.27;;
63005;SDS011;53704;52.532;6.426;2022-09-28T01:37:52;23.73;;;18.60;;
63005;SDS011;53704;52.532;6.426;2022-09-28T01:40:25;37.15;;;18.83;;
63005;SDS011;53704;52.532;6.426;2022-09-28T01:43:03;23.75;;;18.60;;
63005;SDS011;53704;52.532;6.426;2022-09-28T01:45:41;24.45;;;20.73;;
63005;SDS011;53704;52.532;6.426;2022-09-28T01:48:10;23.80;;;18.70;;
63005;SDS011;53704;52.532;6.426;2022-09-28T01:50:41;32.72;;;19.40;;
63005;SDS011;53704;52.532;6.426;2022-09-28T01:53:12;23.88;;;17.85;;
63005;SDS011;53704;52.532;6.426;2022-09-28T01:55:44;27.70;;;19.17;;
63005;SDS011;53704;52.532;6.426;2022-09-28T01:58:16;26.52;;;19.27;;
63005;SDS011;53704;52.532;6.426;2022-09-28T02:00:50;31.48;;;22.13;;
63005;SDS011;53704;52.532;6.426;2022-09-28T02:03:21;28.95;;;20.02;;
63005;SDS011;53704;52.532;6.426;2022-09-28T02:05:53;25.30;;;19.27;;
63005;SDS011;53704;52.532;6.426;2022-09-28T02:08:26;33.70;;;21.08;;
63005;SDS011;53704;52.532;6.426;2022-09-28T02:11:13;21.20;;;18.73;;
63005;SDS011;53704;52.532;6.426;2022-09-28T02:13:41;28.13;;;20.02;;
63005;SDS011;53704;52.532;6.426;2022-09-28T02:18:58;29.98;;;20.67;;
63005;SDS011;53704;52.532;6.426;2022-09-28T02:21:27;27.20;;;20.35;;
63005;SDS011;53704;52.532;6.426;2022-09-28T02:24:08;33.23;;;19.97;;
63005;SDS011;53704;52.532;6.426;2022-09-28T02:26:40;28.45;;;21.77;;
63005;SDS011;53704;52.532;6.426;2022-09-28T02:29:09;26.55;;;19.23;;
63005;SDS011;53704;52.532;6.426;2022-09-28T02:31:34;38.35;;;21.77;;
63005;SDS011;53704;52.532;6.426;2022-09-28T02:34:00;29.60;;;19.98;;
63005;SDS011;53704;52.532;6.426;2022-09-28T02:36:26;34.42;;;20.52;;
63005;SDS011;53704;52.532;6.426;2022-09-28T02:38:53;36.80;;;21.73;;
63005;SDS011;53704;52.532;6.426;2022-09-28T02:44:56;33.45;;;20.83;;
63005;SDS011;53704;52.532;6.426;2022-09-28T03:06:31;25.98;;;21.02;;
63005;SDS011;53704;52.532;6.426;2022-09-28T03:09:18;34.20;;;23.05;;
63005;SDS011;53704;52.532;6.426;2022-09-28T03:11:53;39.15;;;23.10;;
63005;SDS011;53704;52.532;6.426;2022-09-28T03:14:23;37.60;;;22.92;;
63005;SDS011;53704;52.532;6.426;2022-09-28T03:16:48;53.10;;;24.10;;
63005;SDS011;53704;52.532;6.426;2022-09-28T03:19:15;29.38;;;20.98;;
63005;SDS011;53704;52.532;6.426;2022-09-28T03:21:44;38.70;;;21.35;;
63005;SDS011;53704;52.532;6.426;2022-09-28T03:24:10;35.67;;;21.20;;
63005;SDS011;53704;52.532;6.426;2022-09-28T03:26:36;29.90;;;21.45;;
63005;SDS011;53704;52.532;6.426;2022-09-28T03:29:02;31.70;;;23.45;;
63005;SDS011;53704;52.532;6.426;2022-09-28T03:31:28;35.08;;;21.08;;
63005;SDS011;53704;52.532;6.426;2022-09-28T03:33:53;40.13;;;24.33;;
63005;SDS011;53704;52.532;6.426;2022-09-28T03:36:19;36.05;;;21.83;;
63005;SDS011;53704;52.532;6.426;2022-09-28T03:38:45;33.85;;;22.10;;
63005;SDS011;53704;52.532;6.426;2022-09-28T03:41:10;35.60;;;21.90;;
63005;SDS011;53704;52.532;6.426;2022-09-28T03:43:35;49.75;;;24.10;;
63005;SDS011;53704;52.532;6.426;2022-09-28T03:46:01;36.67;;;23.15;;
63005;SDS011;53704;52.532;6.426;2022-09-28T03:48:28;34.65;;;23.73;;
63005;SDS011;53704;52.532;6.426;2022-09-28T03:50:55;38.67;;;24.98;;
63005;SDS011;53704;52.532;6.426;2022-09-28T03:53:22;35.58;;;24.55;;
63005;SDS011;53704;52.532;6.426;2022-09-28T03:55:48;42.70;;;25.83;;
63005;SDS011;53704;52.532;6.426;2022-09-28T03:58:17;46.38;;;24.65;;
63005;SDS011;53704;52.532;6.426;2022-09-28T04:00:46;36.20;;;25.58;;
63005;SDS011;53704;52.532;6.426;2022-09-28T04:03:12;38.72;;;25.73;;
63005;SDS011;53704;52.532;6.426;2022-09-28T04:05:38;41.10;;;25.75;;
63005;SDS011;53704;52.532;6.426;2022-09-28T04:08:04;40.13;;;26.55;;
63005;SDS011;53704;52.532;6.426;2022-09-28T04:10:29;55.67;;;29.52;;
63005;SDS011;53704;52.532;6.426;2022-09-28T04:12:58;49.22;;;27.73;;
63005;SDS011;53704;52.532;6.426;2022-09-28T04:15:23;48.75;;;27.52;;
63005;SDS011;53704;52.532;6.426;2022-09-28T04:17:49;54.70;;;30.42;;
63005;SDS011;53704;52.532;6.426;2022-09-28T04:20:15;47.40;;;29.30;;
63005;SDS011;53704;52.532;6.426;2022-09-28T04:22:41;57.28;;;30.92;;
63005;SDS011;53704;52.532;6.426;2022-09-28T04:25:06;50.08;;;29.33;;
63005;SDS011;53704;52.532;6.426;2022-09-28T04:27:32;50.47;;;29.67;;
63005;SDS011;53704;52.532;6.426;2022-09-28T04:30:16;54.00;;;27.60;;
63005;SDS011;53704;52.532;6.426;2022-09-28T04:32:41;46.83;;;28.02;;
63005;SDS011;53704;52.532;6.426;2022-09-28T04:35:08;42.42;;;27.05;;
63005;SDS011;53704;52.532;6.426;2022-09-28T04:37:35;47.28;;;26.52;;
63005;SDS011;53704;52.532;6.426;2022-09-28T04:40:04;47.90;;;26.83;;
63005;SDS011;53704;52.532;6.426;2022-09-28T04:42:30;52.05;;;26.70;;
63005;SDS011;53704;52.532;6.426;2022-09-28T04:44:55;46.92;;;29.75;;
63005;SDS011;53704;52.532;6.426;2022-09-28T04:47:22;49.00;;;29.02;;
63005;SDS011;53704;52.532;6.426;2022-09-28T04:49:48;47.40;;;27.65;;
63005;SDS011;53704;52.532;6.426;2022-09-28T04:52:13;55.90;;;29.58;;
63005;SDS011;53704;52.532;6.426;2022-09-28T04:54:39;44.47;;;26.90;;
63005;SDS011;53704;52.532;6.426;2022-09-28T04:57:04;47.83;;;27.95;;
63005;SDS011;53704;52.532;6.426;2022-09-28T04:59:30;51.70;;;28.15;;
63005;SDS011;53704;52.532;6.426;2022-09-28T05:01:55;41.33;;;26.05;;
63005;SDS011;53704;52.532;6.426;2022-09-28T05:04:21;47.75;;;28.35;;
63005;SDS011;53704;52.532;6.426;2022-09-28T05:06:46;37.10;;;23.85;;
63005;SDS011;53704;52.532;6.426;2022-09-28T05:09:12;46.17;;;24.38;;
63005;SDS011;53704;52.532;6.426;2022-09-28T05:11:37;41.75;;;23.48;;
63005;SDS011;53704;52.532;6.426;2022-09-28T05:14:03;38.75;;;23.52;;
63005;SDS011;53704;52.532;6.426;2022-09-28T05:16:29;33.85;;;23.30;;
63005;SDS011;53704;52.532;6.426;2022-09-28T05:18:57;32.97;;;22.27;;
63005;SDS011;53704;52.532;6.426;2022-09-28T05:21:23;42.75;;;22.77;;
63005;SDS011;53704;52.532;6.426;2022-09-28T05:23:50;36.70;;;23.88;;
63005;SDS011;53704;52.532;6.426;2022-09-28T05:26:16;44.13;;;23.48;;
63005;SDS011;53704;52.532;6.426;2022-09-28T05:28:42;52.75;;;25.10;;
63005;SDS011;53704;52.532;6.426;2022-09-28T05:31:08;43.75;;;24.58;;
63005;SDS011;53704;52.532;6.426;2022-09-28T05:33:34;33.92;;;22.15;;
63005;SDS011;53704;52.532;6.426;2022-09-28T05:36:02;31.00;;;22.58;;
63005;SDS011;53704;52.532;6.426;2022-09-28T05:38:28;37.70;;;22.15;;
63005;SDS011;53704;52.532;6.426;2022-09-28T05:40:54;37.80;;;22.42;;
63005;SDS011;53704;52.532;6.426;2022-09-28T05:43:20;35.20;;;23.13;;
63005;SDS011;53704;52.532;6.426;2022-09-28T05:45:45;40.92;;;24.75;;
63005;SDS011;53704;52.532;6.426;2022-09-28T05:48:11;45.80;;;26.23;;
63005;SDS011;53704;52.532;6.426;2022-09-28T05:50:37;39.10;;;23.00;;
63005;SDS011;53704;52.532;6.426;2022-09-28T05:53:03;43.67;;;24.77;;
63005;SDS011;53704;52.532;6.426;2022-09-28T05:55:30;38.50;;;24.80;;
63005;SDS011;53704;52.532;6.426;2022-09-28T05:57:57;38.42;;;25.13;;
63005;SDS011;53704;52.532;6.426;2022-09-28T06:00:24;43.75;;;25.67;;
63005;SDS011;53704;52.532;6.426;2022-09-28T06:02:57;43.65;;;24.75;;
63005;SDS011;53704;52.532;6.426;2022-09-28T06:05:24;39.53;;;24.02;;
63005;SDS011;53704;52.532;6.426;2022-09-28T06:07:50;40.03;;;24.13;;
63005;SDS011;53704;52.532;6.426;2022-09-28T06:10:16;40.42;;;25.17;;
63005;SDS011;53704;52.532;6.426;2022-09-28T06:12:41;31.63;;;22.17;;
63005;SDS011;53704;52.532;6.426;2022-09-28T06:15:07;38.42;;;24.50;;
63005;SDS011;53704;52.532;6.426;2022-09-28T06:17:33;36.50;;;23.83;;
63005;SDS011;53704;52.532;6.426;2022-09-28T06:19:58;34.63;;;23.45;;
63005;SDS011;53704;52.532;6.426;2022-09-28T06:22:24;40.50;;;23.58;;
63005;SDS011;53704;52.532;6.426;2022-09-28T06:24:49;36.45;;;22.58;;
63005;SDS011;53704;52.532;6.426;2022-09-28T06:27:14;34.90;;;23.10;;
63005;SDS011;53704;52.532;6.426;2022-09-28T06:29:40;33.30;;;21.63;;
63005;SDS011;53704;52.532;6.426;2022-09-28T06:32:05;34.15;;;22.85;;
63005;SDS011;53704;52.532;6.426;2022-09-28T06:34:31;29.70;;;19.85;;
63005;SDS011;53704;52.532;6.426;2022-09-28T06:36:58;29.65;;;21.15;;
63005;SDS011;53704;52.532;6.426;2022-09-28T06:39:24;27.92;;;19.70;;
63005;SDS011;53704;52.532;6.426;2022-09-28T06:41:49;30.67;;;21.30;;
63005;SDS011;53704;52.532;6.426;2022-09-28T06:44:15;27.58;;;20.30;;
63005;SDS011;53704;52.532;6.426;2022-09-28T06:46:40;35.53;;;20.55;;
63005;SDS011;53704;52.532;6.426;2022-09-28T06:49:05;24.45;;;19.52;;
63005;SDS011;53704;52.532;6.426;2022-09-28T06:51:33;26.48;;;20.08;;
63005;SDS011;53704;52.532;6.426;2022-09-28T06:53:59;21.08;;;18.63;;
63005;SDS011;53704;52.532;6.426;2022-09-28T06:56:24;26.20;;;19.05;;
63005;SDS011;53704;52.532;6.426;2022-09-28T06:58:50;28.60;;;19.98;;
63005;SDS011;53704;52.532;6.426;2022-09-28T07:01:15;26.90;;;18.10;;
63005;SDS011;53704;52.532;6.426;2022-09-28T07:03:41;19.58;;;17.48;;
63005;SDS011;53704;52.532;6.426;2022-09-28T07:06:08;23.02;;;17.55;;
63005;SDS011;53704;52.532;6.426;2022-09-28T07:08:35;18.42;;;15.77;;
63005;SDS011;53704;52.532;6.426;2022-09-28T07:11:03;26.73;;;15.85;;
63005;SDS011;53704;52.532;6.426;2022-09-28T07:13:30;16.58;;;14.52;;
63005;SDS011;53704;52.532;6.426;2022-09-28T07:15:59;17.70;;;15.77;;
63005;SDS011;53704;52.532;6.426;2022-09-28T07:18:25;22.92;;;16.08;;
63005;SDS011;53704;52.532;6.426;2022-09-28T07:20:56;18.98;;;16.13;;
63005;SDS011;53704;52.532;6.426;2022-09-28T07:23:22;18.55;;;15.63;;
63005;SDS011;53704;52.532;6.426;2022-09-28T07:25:50;17.42;;;15.48;;
63005;SDS011;53704;52.532;6.426;2022-09-28T07:28:15;17.55;;;14.65;;
63005;SDS011;53704;52.532;6.426;2022-09-28T07:30:45;20.08;;;15.43;;
63005;SDS011;53704;52.532;6.426;2022-09-28T07:33:12;20.63;;;14.80;;
63005;SDS011;53704;52.532;6.426;2022-09-28T07:35:38;21.17;;;14.18;;
63005;SDS011;53704;52.532;6.426;2022-09-28T07:38:06;18.15;;;13.80;;
63005;SDS011;53704;52.532;6.426;2022-09-28T07:40:33;17.73;;;13.50;;
63005;SDS011;53704;52.532;6.426;2022-09-28T07:43:18;18.10;;;13.55;;
63005;SDS011;53704;52.532;6.426;2022-09-28T07:45:47;13.35;;;12.15;;
63005;SDS011;53704;52.532;6.426;2022-09-28T07:48:14;16.58;;;12.60;;
63005;SDS011;53704;52.532;6.426;2022-09-28T07:53:17;19.90;;;13.00;;
63005;SDS011;53704;52.532;6.426;2022-09-28T07:55:48;13.05;;;11.85;;
63005;SDS011;53704;52.532;6.426;2022-09-28T07:58:18;20.85;;;12.15;;
63005;SDS011;53704;52.532;6.426;2022-09-28T08:00:44;13.80;;;11.77;;
63005;SDS011;53704;52.532;6.426;2022-09-28T08:03:12;15.15;;;13.65;;
63005;SDS011;53704;52.532;6.426;2022-09-28T08:05:38;18.88;;;12.55;;
63005;SDS011;53704;52.532;6.426;2022-09-28T08:08:05;13.00;;;11.45;;
63005;SDS011;53704;52.532;6.426;2022-09-28T08:10:30;11.15;;;10.02;;
63005;SDS011;53704;52.532;6.426;2022-09-28T08:12:56;10.38;;;8.60;;
63005;SDS011;53704;52.532;6.426;2022-09-28T08:15:25;9.90;;;8.93;;
63005;SDS011;53704;52.532;6.426;2022-09-28T08:17:53;10.80;;;8.90;;
63005;SDS011;53704;52.532;6.426;2022-09-28T08:20:19;13.05;;;9.40;;
63005;SDS011;53704;52.532;6.426;2022-09-28T08:23:03;12.77;;;9.63;;
63005;SDS011;53704;52.532;6.426;2022-09-28T08:25:32;12.93;;;9.30;;
63005;SDS011;53704;52.532;6.426;2022-09-28T08:28:00;10.50;;;9.63;;
63005;SDS011;53704;52.532;6.426;2022-09-28T08:30:26;11.05;;;10.00;;
63005;SDS011;53704;52.532;6.426;2022-09-28T08:32:52;17.80;;;10.93;;
63005;SDS011;53704;52.532;6.426;2022-09-28T08:35:17;12.60;;;10.32;;
63005;SDS011;53704;52.532;6.426;2022-09-28T08:37:48;10.70;;;9.65;;
63005;SDS011;53704;52.532;6.426;2022-09-28T08:40:18;10.48;;;9.48;;
63005;SDS011;53704;52.532;6.426;2022-09-28T08:42:48;10.18;;;8.80;;
63005;SDS011;53704;52.532;6.426;2022-09-28T08:45:27;14.57;;;9.55;;
63005;SDS011;53704;52.532;6.426;2022-09-28T08:50:58;13.73;;;8.90;;
63005;SDS011;53704;52.532;6.426;2022-09-28T08:56:58;8.80;;;7.97;;
63005;SDS011;53704;52.532;6.426;2022-09-28T08:58:57;8.15;;;7.05;;
63005;SDS011;53704;52.532;6.426;2022-09-28T09:01:27;9.18;;;8.20;;
63005;SDS011;53704;52.532;6.426;2022-09-28T09:03:58;7.22;;;6.15;;
63005;SDS011;53704;52.532;6.426;2022-09-28T09:09:24;11.15;;;6.07;;
63005;SDS011;53704;52.532;6.426;2022-09-28T09:12:21;5.75;;;5.22;;
63005;SDS011;53704;52.532;6.426;2022-09-28T09:20:46;5.40;;;4.93;;
63005;SDS011;53704;52.532;6.426;2022-09-28T09:23:18;6.38;;;5.75;;
63005;SDS011;53704;52.532;6.426;2022-09-28T09:25:54;6.93;;;6.15;;
63005;SDS011;53704;52.532;6.426;2022-09-28T09:39:06;4.63;;;3.72;;
63005;SDS011;53704;52.532;6.426;2022-09-28T09:47:09;5.10;;;4.72;;
63005;SDS011;53704;52.532;6.426;2022-09-28T09:52:21;3.28;;;3.05;;
63005;SDS011;53704;52.532;6.426;2022-09-28T09:57:20;4.85;;;3.50;;
63005;SDS011;53704;52.532;6.426;2022-09-28T09:59:51;3.30;;;3.10;;
63005;SDS011;53704;52.532;6.426;2022-09-28T10:02:27;4.90;;;3.53;;
63005;SDS011;53704;52.532;6.426;2022-09-28T10:05:04;3.00;;;2.90;;
63005;SDS011;53704;52.532;6.426;2022-09-28T10:10:39;4.55;;;2.42;;
63005;SDS011;53704;52.532;6.426;2022-09-28T10:13:13;2.58;;;2.38;;
63005;SDS011;53704;52.532;6.426;2022-09-28T10:15:39;3.53;;;2.67;;
63005;SDS011;53704;52.532;6.426;2022-09-28T10:18:09;4.07;;;2.60;;
63005;SDS011;53704;52.532;6.426;2022-09-28T10:20:37;2.35;;;2.25;;
63005;SDS011;53704;52.532;6.426;2022-09-28T10:23:05;4.50;;;2.30;;
63005;SDS011;53704;52.532;6.426;2022-09-28T10:25:38;2.47;;;2.30;;
63005;SDS011;53704;52.532;6.426;2022-09-28T10:28:09;2.45;;;2.00;;
63005;SDS011;53704;52.532;6.426;2022-09-28T10:30:41;1.83;;;1.73;;
63005;SDS011;53704;52.532;6.426;2022-09-28T10:33:29;2.75;;;1.55;;
63005;SDS011;53704;52.532;6.426;2022-09-28T10:35:58;2.80;;;1.88;;
63005;SDS011;53704;52.532;6.426;2022-09-28T10:38:25;1.75;;;1.33;;
63005;SDS011;53704;52.532;6.426;2022-09-28T10:40:58;3.22;;;1.10;;
63005;SDS011;53704;52.532;6.426;2022-09-28T10:43:32;1.38;;;1.20;;
63005;SDS011;53704;52.532;6.426;2022-09-28T10:46:12;1.73;;;1.17;;
63005;SDS011;53704;52.532;6.426;2022-09-28T10:51:19;0.80;;;0.80;;
63005;SDS011;53704;52.532;6.426;2022-09-28T10:54:00;0.80;;;0.80;;
63005;SDS011;53704;52.532;6.426;2022-09-28T10:56:27;1.33;;;1.10;;
63005;SDS011;53704;52.532;6.426;2022-09-28T10:58:59;1.42;;;1.08;;
63005;SDS011;53704;52.532;6.426;2022-09-28T11:01:25;4.57;;;0.90;;
63005;SDS011;53704;52.532;6.426;2022-09-28T11:04:03;5.97;;;0.88;;
63005;SDS011;53704;52.532;6.426;2022-09-28T11:06:35;0.90;;;0.90;;
63005;SDS011;53704;52.532;6.426;2022-09-28T11:09:13;2.78;;;0.98;;
63005;SDS011;53704;52.532;6.426;2022-09-28T11:11:50;1.02;;;0.82;;
63005;SDS011;53704;52.532;6.426;2022-09-28T11:14:34;0.85;;;0.85;;
63005;SDS011;53704;52.532;6.426;2022-09-28T11:17:44;0.90;;;0.90;;
63005;SDS011;53704;52.532;6.426;2022-09-28T11:20:40;1.83;;;0.98;;
63005;SDS011;53704;52.532;6.426;2022-09-28T11:22:56;2.00;;;1.00;;
63005;SDS011;53704;52.532;6.426;2022-09-28T11:25:23;1.13;;;0.98;;
63005;SDS011;53704;52.532;6.426;2022-09-28T11:31:01;1.20;;;1.10;;
63005;SDS011;53704;52.532;6.426;2022-09-28T11:33:30;0.70;;;0.70;;
63005;SDS011;53704;52.532;6.426;2022-09-28T11:36:12;2.47;;;1.40;;
63005;SDS011;53704;52.532;6.426;2022-09-28T11:38:39;7.93;;;0.90;;
63005;SDS011;53704;52.532;6.426;2022-09-28T11:44:53;1.83;;;1.23;;
63005;SDS011;53704;52.532;6.426;2022-09-28T11:49:38;1.05;;;0.95;;
63005;SDS011;53704;52.532;6.426;2022-09-28T11:52:18;1.00;;;1.00;;
63005;SDS011;53704;52.532;6.426;2022-09-28T11:57:55;1.13;;;0.80;;
63005;SDS011;53704;52.532;6.426;2022-09-28T12:00:33;0.70;;;0.70;;
63005;SDS011;53704;52.532;6.426;2022-09-28T12:03:13;1.38;;;0.77;;
63005;SDS011;53704;52.532;6.426;2022-09-28T12:05:54;2.65;;;0.90;;
63005;SDS011;53704;52.532;6.426;2022-09-28T12:08:33;4.93;;;1.20;;
63005;SDS011;53704;52.532;6.426;2022-09-28T12:11:17;1.70;;;1.00;;
63005;SDS011;53704;52.532;6.426;2022-09-28T12:13:48;6.32;;;0.70;;
63005;SDS011;53704;52.532;6.426;2022-09-28T12:21:32;3.45;;;0.65;;
63005;SDS011;53704;52.532;6.426;2022-09-28T12:24:06;1.33;;;0.60;;
63005;SDS011;53704;52.532;6.426;2022-09-28T12:29:04;0.60;;;0.40;;
63005;SDS011;53704;52.532;6.426;2022-09-28T12:34:13;1.23;;;0.57;;
63005;SDS011;53704;52.532;6.426;2022-09-28T12:50:55;1.63;;;0.45;;
63005;SDS011;53704;52.532;6.426;2022-09-28T12:53:38;0.30;;;0.30;;
63005;SDS011;53704;52.532;6.426;2022-09-28T12:59:17;0.73;;;0.30;;
63005;SDS011;53704;52.532;6.426;2022-09-28T13:07:24;0.40;;;0.30;;
63005;SDS011;53704;52.532;6.426;2022-09-28T13:18:39;1.85;;;0.40;;
63005;SDS011;53704;52.532;6.426;2022-09-28T13:21:42;0.90;;;0.25;;
63005;SDS011;53704;52.532;6.426;2022-09-28T13:23:59;1.55;;;0.70;;
63005;SDS011;53704;52.532;6.426;2022-09-28T13:26:30;6.15;;;1.23;;
63005;SDS011;53704;52.532;6.426;2022-09-28T13:29:15;3.35;;;1.08;;
63005;SDS011;53704;52.532;6.426;2022-09-28T13:31:50;2.13;;;0.70;;
63005;SDS011;53704;52.532;6.426;2022-09-28T13:34:21;7.00;;;0.70;;
63005;SDS011;53704;52.532;6.426;2022-09-28T13:42:09;0.98;;;0.88;;
63005;SDS011;53704;52.532;6.426;2022-09-28T13:47:35;0.85;;;0.52;;
63005;SDS011;53704;52.532;6.426;2022-09-28T13:50:14;4.90;;;0.80;;
63005;SDS011;53704;52.532;6.426;2022-09-28T13:55:38;0.80;;;0.50;;
63005;SDS011;53704;52.532;6.426;2022-09-28T13:58:30;1.10;;;0.40;;
63005;SDS011;53704;52.532;6.426;2022-09-28T14:01:02;0.70;;;0.25;;
63005;SDS011;53704;52.532;6.426;2022-09-28T14:04:23;1.08;;;0.50;;
63005;SDS011;53704;52.532;6.426;2022-09-28T14:06:49;1.25;;;0.60;;
63005;SDS011;53704;52.532;6.426;2022-09-28T14:12:15;0.82;;;0.52;;
63005;SDS011;53704;52.532;6.426;2022-09-28T14:18:08;0.45;;;0.20;;
63005;SDS011;53704;52.532;6.426;2022-09-28T14:20:35;0.70;;;0.30;;
63005;SDS011;53704;52.532;6.426;2022-09-28T14:28:39;2.70;;;1.27;;
63005;SDS011;53704;52.532;6.426;2022-09-28T14:31:26;1.73;;;0.60;;
63005;SDS011;53704;52.532;6.426;2022-09-28T14:33:53;3.50;;;0.55;;
63005;SDS011;53704;52.532;6.426;2022-09-28T14:36:23;1.10;;;0.35;;
63005;SDS011;53704;52.532;6.426;2022-09-28T14:39:21;0.80;;;0.40;;
63005;SDS011;53704;52.532;6.426;2022-09-28T14:42:15;1.10;;;0.52;;
63005;SDS011;53704;52.532;6.426;2022-09-28T14:47:35;1.10;;;0.32;;
63005;SDS011;53704;52.532;6.426;2022-09-28T14:50:21;2.63;;;0.32;;
63005;SDS011;53704;52.532;6.426;2022-09-28T14:52:49;1.38;;;0.40;;
63005;SDS011;53704;52.532;6.426;2022-09-28T14:55:19;2.88;;;0.52;;
63005;SDS011;53704;52.532;6.426;2022-09-28T14:57:55;1.15;;;0.32;;
63005;SDS011;53704;52.532;6.426;2022-09-28T15:00:23;1.35;;;0.35;;
63005;SDS011;53704;52.532;6.426;2022-09-28T15:02:54;0.30;;;0.30;;
63005;SDS011;53704;52.532;6.426;2022-09-28T15:05:29;3.20;;;0.50;;
63005;SDS011;53704;52.532;6.426;2022-09-28T15:07:59;0.70;;;0.60;;
63005;SDS011;53704;52.532;6.426;2022-09-28T15:12:56;5.15;;;0.52;;
63005;SDS011;53704;52.532;6.426;2022-09-28T15:15:26;3.13;;;0.73;;
63005;SDS011;53704;52.532;6.426;2022-09-28T15:18:06;2.22;;;0.60;;
63005;SDS011;53704;52.532;6.426;2022-09-28T15:20:44;1.58;;;0.47;;
63005;SDS011;53704;52.532;6.426;2022-09-28T15:23:22;1.65;;;0.50;;
63005;SDS011;53704;52.532;6.426;2022-09-28T15:25:51;0.85;;;0.60;;
63005;SDS011;53704;52.532;6.426;2022-09-28T15:28:18;0.90;;;0.50;;
63005;SDS011;53704;52.532;6.426;2022-09-28T15:30:46;8.00;;;0.80;;
63005;SDS011;53704;52.532;6.426;2022-09-28T15:36:28;8.70;;;0.60;;
63005;SDS011;53704;52.532;6.426;2022-09-28T15:39:02;1.15;;;0.70;;
63005;SDS011;53704;52.532;6.426;2022-09-28T15:41:30;5.68;;;0.93;;
63005;SDS011;53704;52.532;6.426;2022-09-28T15:46:35;3.97;;;1.02;;
63005;SDS011;53704;52.532;6.426;2022-09-28T15:49:03;2.67;;;0.75;;
63005;SDS011;53704;52.532;6.426;2022-09-28T15:51:29;6.82;;;0.82;;
63005;SDS011;53704;52.532;6.426;2022-09-28T15:54:13;3.10;;;0.60;;
63005;SDS011;53704;52.532;6.426;2022-09-28T15:56:53;3.05;;;0.80;;
63005;SDS011;53704;52.532;6.426;2022-09-28T16:02:11;2.92;;;0.70;;
63005;SDS011;53704;52.532;6.426;2022-09-28T16:04:45;1.13;;;0.63;;
63005;SDS011;53704;52.532;6.426;2022-09-28T16:09:55;0.80;;;0.80;;
63005;SDS011;53704;52.532;6.426;2022-09-28T16:12:30;1.02;;;0.80;;
63005;SDS011;53704;52.532;6.426;2022-09-28T16:15:48;0.93;;;0.90;;
63005;SDS011;53704;52.532;6.426;2022-09-28T16:20:28;3.10;;;0.88;;
63005;SDS011;53704;52.532;6.426;2022-09-28T16:23:00;1.42;;;0.45;;
63005;SDS011;53704;52.532;6.426;2022-09-28T16:25:33;2.58;;;0.70;;
63005;SDS011;53704;52.532;6.426;2022-09-28T16:28:01;2.03;;;0.35;;
63005;SDS011;53704;52.532;6.426;2022-09-28T16:30:29;1.25;;;0.40;;
63005;SDS011;53704;52.532;6.426;2022-09-28T16:33:03;0.40;;;0.40;;
63005;SDS011;53704;52.532;6.426;2022-09-28T16:35:31;0.47;;;0.47;;
63005;SDS011;53704;52.532;6.426;2022-09-28T16:38:01;6.43;;;1.00;;
63005;SDS011;53704;52.532;6.426;2022-09-28T16:40:29;3.50;;;1.30;;
63005;SDS011;53704;52.532;6.426;2022-09-28T16:42:57;2.53;;;1.90;;
63005;SDS011;53704;52.532;6.426;2022-09-28T16:45:26;3.95;;;3.53;;
63005;SDS011;53704;52.532;6.426;2022-09-28T16:47:54;4.88;;;2.53;;
63005;SDS011;53704;52.532;6.426;2022-09-28T16:50:21;7.18;;;3.40;;
63005;SDS011;53704;52.532;6.426;2022-09-28T16:52:55;5.45;;;4.55;;
63005;SDS011;53704;52.532;6.426;2022-09-28T16:55:43;3.92;;;3.40;;
63005;SDS011;53704;52.532;6.426;2022-09-28T16:58:08;3.05;;;2.85;;
63005;SDS011;53704;52.532;6.426;2022-09-28T17:00:34;5.65;;;3.92;;
63005;SDS011;53704;52.532;6.426;2022-09-28T17:03:00;8.75;;;3.72;;
63005;SDS011;53704;52.532;6.426;2022-09-28T17:05:28;18.85;;;4.43;;
63005;SDS011;53704;52.532;6.426;2022-09-28T17:08:02;3.42;;;2.55;;
63005;SDS011;53704;52.532;6.426;2022-09-28T17:10:37;3.20;;;2.85;;
63005;SDS011;53704;52.532;6.426;2022-09-28T17:13:07;3.80;;;2.40;;
63005;SDS011;53704;52.532;6.426;2022-09-28T17:15:36;5.25;;;2.38;;
63005;SDS011;53704;52.532;6.426;2022-09-28T17:18:05;12.20;;;8.80;;
63005;SDS011;53704;52.532;6.426;2022-09-28T17:20:31;4.93;;;4.25;;
63005;SDS011;53704;52.532;6.426;2022-09-28T17:22:58;4.90;;;4.60;;
63005;SDS011;53704;52.532;6.426;2022-09-28T17:25:24;4.15;;;3.90;;
63005;SDS011;53704;52.532;6.426;2022-09-28T17:27:50;9.95;;;3.25;;
63005;SDS011;53704;52.532;6.426;2022-09-28T17:30:18;4.65;;;2.05;;
63005;SDS011;53704;52.532;6.426;2022-09-28T17:32:44;3.47;;;1.63;;
63005;SDS011;53704;52.532;6.426;2022-09-28T17:35:11;2.20;;;1.58;;
63005;SDS011;53704;52.532;6.426;2022-09-28T17:37:38;2.20;;;1.48;;
63005;SDS011;53704;52.532;6.426;2022-09-28T17:40:14;2.65;;;1.30;;
63005;SDS011;53704;52.532;6.426;2022-09-28T17:42:42;4.43;;;2.22;;
63005;SDS011;53704;52.532;6.426;2022-09-28T17:45:07;5.32;;;4.90;;
63005;SDS011;53704;52.532;6.426;2022-09-28T17:47:33;5.35;;;4.95;;
63005;SDS011;53704;52.532;6.426;2022-09-28T17:49:58;4.63;;;3.92;;